Herzog, Jane
United StatesWomanBorn 19632007 – 2024Runner id 62018
Events
36
2007 – 2024
Best pace
7.715
km/h · 2015
Best finish
31st
of 74 · 2013
Distance raced
2,542
km · splits not double-counted
Pace over time
km/h · higher is faster
Pace over time: 36 races from 2007 to 2024, ranging from 1.70 to 8.92 kilometres per hour, where higher is faster. A second, age-graded series is drawn above it; the gap between the two is the age credit.
- Actual pace
- Age-graded pace
Results
| Date | Event | Distance | Result | Pace km/h | Placing |
|---|---|---|---|---|---|
| 2007-11-03 | 50km | 7:30:01 h | 6.666 | 47/50 | |
| 2008-01-26 | Pigtails Run 50KUnited States | 50km | 7:13:35 h | 6.919 | 48/49 |
| 2008-09-13 | Cle Elum Ridge 50kUnited States | 50km | 10:28:00 h | 4.777 | 80/80 |
| 2008-10-20 | Baker Lake 50K Ultra Trail RunUnited States | 50km | 8:57:03 h | 5.586 | 84/86 |
| 2009-01-10 | Bridle Trails Winter Running FestivalUnited States | 50km | 8:37:00 h | 5.803 | 50/50 |
| 2009-01-24 | Pigtails Run 50KUnited States | 50km | 7:21:00 h | 6.803 | 49/49 |
| 2009-04-25 | 40mi | 10:49:00 h | 5.951 | 38/44 | |
| 2009-05-16 | Watershed Preserve 12 Hr Trail RaceUnited States | 12h | 69.201 km | 5.767 | 37/66 |
| 2009-06-20 | Lost Lake 50kUnited States | 50km | 11:26:07 h | 4.372 | 21/22 |
| 2010-08-15 | 12h | 51.499 km | 4.292 | 38/40 | |
| 2011-06-18 | 50km | 8:47:52 h | 5.683 | 55/55 | |
| 2011-10-15 | 50km | 8:04:25 h | 6.193 | 110/112 | |
| 2012-01-28 | Lake Youngs Nuts RunUnited States | 50km | 7:40:30 h | 6.515 | 56/57 |
| 2012-04-28 | 55km | 10:44:50 h | 5.118 | 65/66 | |
| 2012-05-19 | 12h | 72.677 km | 6.056 | 32/60 | |
| 2012-08-12 | 12h | 61.312 km | 5.109 | 47/74 | |
| 2012-09-22 | 50km | 9:48:03 h | 5.102 | 41/42 | |
| 2013-03-23 | 12h | 66.948 km | 5.579 | 31/74 | |
| 2013-04-13 | Lumberjack Endurance 50 Mile RunUnited States | 50mi | 16:39:00 h | 4.833 | 10/11 |
| 2013-05-18 | 12h | 68.662 km | 5.722 | 33/64 | |
| 2014-10-12 | Defiance 50kUnited States | 50km | 9:48:00 h | 5.102 | 84/85 |
| 2015-01-10 | 50km | 8:53:53 h | 5.619 | 50/50 | |
| 2015-04-11 | Lumberjack Endurance 50 Mile RunUnited States | 50mi | 24:46:00 h | 3.249 | 12/18 |
| 2015-04-25 | 50km | 8:15:00 h | 6.061 | 31/32 | |
| 2015-05-23 | Pigtails Challenge 100 KmUnited States | 100mi | 20:51:38 h | 7.715 | 26/26 |
| 2015-10-10 | Defiance 50kUnited States | 50km | 10:53:00 h | 4.594 | 74/76 |
| 2016-01-30 | Lake Youngs Nuts RunUnited States | 50km | 8:22:51 h | 5.966 | 37/37 |
| 2018-03-24 | 12h | 51.499 km | 4.292 | 36/42 | |
| 2018-07-29 | Angry Owl 12 Hour UltramarathonUnited States | 12h | 49.889 km | 4.157 | 16/19 |
| 2018-08-30 | 86h | 160.934 km | 1.871 | 113/163 | |
| 2019-03-23 | Dizzy Daze 12 hoursUnited States | 12h | 51.499 km | 4.292 | 58/59 |
| 2021-09-08 | 89h | 160.934 km | 1.808 | 55/74 | |
| 2022-02-18 | 72h | 164.153 km | 2.280 | 29/46 | |
| 2023-04-13 | 72h | 160.934 km | 2.235 | 16/27 | |
| 2023-08-12 | 32h | 54.395 km | 1.700 | 35/37 | |
| 2024-08-10 | 24h | 56.327 km | 2.347 | 22/26 |